KPWA/PWA METAR and TAF weather

Enter ICAO airport designator
Station Type Date Time Source
KPWA METAR 2019/08/24 08:53 UTC NOAA

KPWA 240853Z AUTO 33003KT 10SM FEW042 22/21 A2998 RMK AO2 SLP137 T02220206 55006


Station Type Date Time Source
KPWA Decoded METAR 2019/08/24 08:53 UTC NOAA

Station name not available
Aug 24, 2019 - 04:53 AM EDT / 2019.08.24 0853 UTC
Wind: from the NNW (330 degrees) at 3 MPH (3 KT):0
Visibility: 10 mile(s):0
Sky conditions: mostly clear
Temperature: 72.0 F (22.2 C)
Dew Point: 69.1 F (20.6 C)
Relative Humidity: 90%
Pressure (altimeter): 29.98 in. Hg (1015 hPa)
Pressure tendency: 0.02 inches (0.6 hPa) lower than three hours ago
ob: KPWA 240853Z AUTO 33003KT 10SM FEW042 22/21 A2998 RMK AO2 SLP137 T02220206 55006
cycle: 9

Station Type Date Time Source
KPWA TAF UTC NOAA

Error!

Example: see airport list